sensor_id;sensor_type;location;lat;lon;timestamp;P1;durP1;ratioP1;P2;durP2;ratioP2
7529;SDS011;3806;52.270;10.544;2023-11-19T00:00:10;1.30;;;1.10;;
7529;SDS011;3806;52.270;10.544;2023-11-19T00:02:37;0.60;;;0.60;;
7529;SDS011;3806;52.270;10.544;2023-11-19T00:05:06;1.27;;;0.70;;
7529;SDS011;3806;52.270;10.544;2023-11-19T00:07:36;1.38;;;0.77;;
7529;SDS011;3806;52.270;10.544;2023-11-19T00:10:06;1.08;;;0.77;;
7529;SDS011;3806;52.270;10.544;2023-11-19T00:12:42;0.82;;;0.50;;
7529;SDS011;3806;52.270;10.544;2023-11-19T00:15:09;0.70;;;0.65;;
7529;SDS011;3806;52.270;10.544;2023-11-19T00:17:37;0.63;;;0.60;;
7529;SDS011;3806;52.270;10.544;2023-11-19T00:20:05;0.82;;;0.57;;
7529;SDS011;3806;52.270;10.544;2023-11-19T00:22:32;0.45;;;0.45;;
7529;SDS011;3806;52.270;10.544;2023-11-19T00:24:57;1.58;;;0.82;;
7529;SDS011;3806;52.270;10.544;2023-11-19T00:27:24;0.70;;;0.50;;
7529;SDS011;3806;52.270;10.544;2023-11-19T00:29:50;0.75;;;0.55;;
7529;SDS011;3806;52.270;10.544;2023-11-19T00:32:15;0.73;;;0.47;;
7529;SDS011;3806;52.270;10.544;2023-11-19T00:34:43;2.83;;;0.80;;
7529;SDS011;3806;52.270;10.544;2023-11-19T00:37:09;0.60;;;0.50;;
7529;SDS011;3806;52.270;10.544;2023-11-19T00:39:34;0.57;;;0.50;;
7529;SDS011;3806;52.270;10.544;2023-11-19T00:42:00;0.70;;;0.70;;
7529;SDS011;3806;52.270;10.544;2023-11-19T00:44:26;0.60;;;0.50;;
7529;SDS011;3806;52.270;10.544;2023-11-19T00:46:51;1.17;;;0.77;;
7529;SDS011;3806;52.270;10.544;2023-11-19T00:49:16;0.73;;;0.60;;
7529;SDS011;3806;52.270;10.544;2023-11-19T00:51:42;0.63;;;0.50;;
7529;SDS011;3806;52.270;10.544;2023-11-19T00:54:07;0.57;;;0.47;;
7529;SDS011;3806;52.270;10.544;2023-11-19T00:56:33;0.55;;;0.50;;
7529;SDS011;3806;52.270;10.544;2023-11-19T00:58:59;1.05;;;0.90;;
7529;SDS011;3806;52.270;10.544;2023-11-19T01:01:25;0.80;;;0.80;;
7529;SDS011;3806;52.270;10.544;2023-11-19T01:03:51;1.17;;;0.98;;
7529;SDS011;3806;52.270;10.544;2023-11-19T01:06:26;0.75;;;0.50;;
7529;SDS011;3806;52.270;10.544;2023-11-19T01:08:55;0.30;;;0.30;;
7529;SDS011;3806;52.270;10.544;2023-11-19T01:11:25;0.28;;;0.28;;
7529;SDS011;3806;52.270;10.544;2023-11-19T01:13:51;1.52;;;0.30;;
7529;SDS011;3806;52.270;10.544;2023-11-19T01:16:17;0.20;;;0.20;;
7529;SDS011;3806;52.270;10.544;2023-11-19T01:18:43;0.95;;;0.50;;
7529;SDS011;3806;52.270;10.544;2023-11-19T01:21:09;0.52;;;0.30;;
7529;SDS011;3806;52.270;10.544;2023-11-19T01:23:35;0.30;;;0.30;;
7529;SDS011;3806;52.270;10.544;2023-11-19T01:26:02;0.32;;;0.30;;
7529;SDS011;3806;52.270;10.544;2023-11-19T01:28:28;0.57;;;0.50;;
7529;SDS011;3806;52.270;10.544;2023-11-19T01:30:53;0.47;;;0.40;;
7529;SDS011;3806;52.270;10.544;2023-11-19T01:33:19;0.43;;;0.43;;
7529;SDS011;3806;52.270;10.544;2023-11-19T01:35:44;0.60;;;0.35;;
7529;SDS011;3806;52.270;10.544;2023-11-19T01:38:10;0.40;;;0.38;;
7529;SDS011;3806;52.270;10.544;2023-11-19T01:40:35;0.73;;;0.40;;
7529;SDS011;3806;52.270;10.544;2023-11-19T01:43:02;0.40;;;0.40;;
7529;SDS011;3806;52.270;10.544;2023-11-19T01:45:29;0.75;;;0.30;;
7529;SDS011;3806;52.270;10.544;2023-11-19T01:47:56;0.63;;;0.43;;
7529;SDS011;3806;52.270;10.544;2023-11-19T01:50:23;0.43;;;0.43;;
7529;SDS011;3806;52.270;10.544;2023-11-19T01:52:52;0.77;;;0.38;;
7529;SDS011;3806;52.270;10.544;2023-11-19T01:55:18;2.90;;;0.50;;
7529;SDS011;3806;52.270;10.544;2023-11-19T01:57:45;0.20;;;0.20;;
7529;SDS011;3806;52.270;10.544;2023-11-19T02:00:11;0.35;;;0.28;;
7529;SDS011;3806;52.270;10.544;2023-11-19T02:02:39;0.57;;;0.40;;
7529;SDS011;3806;52.270;10.544;2023-11-19T02:05:05;0.43;;;0.30;;
7529;SDS011;3806;52.270;10.544;2023-11-19T02:07:32;0.30;;;0.30;;
7529;SDS011;3806;52.270;10.544;2023-11-19T02:09:57;0.60;;;0.40;;
7529;SDS011;3806;52.270;10.544;2023-11-19T02:12:26;0.50;;;0.20;;
7529;SDS011;3806;52.270;10.544;2023-11-19T02:14:53;0.40;;;0.30;;
7529;SDS011;3806;52.270;10.544;2023-11-19T02:17:29;0.38;;;0.30;;
7529;SDS011;3806;52.270;10.544;2023-11-19T02:19:59;0.30;;;0.30;;
7529;SDS011;3806;52.270;10.544;2023-11-19T02:22:25;0.57;;;0.57;;
7529;SDS011;3806;52.270;10.544;2023-11-19T02:24:55;1.77;;;0.40;;
7529;SDS011;3806;52.270;10.544;2023-11-19T02:30:03;0.47;;;0.43;;
7529;SDS011;3806;52.270;10.544;2023-11-19T02:32:33;1.08;;;0.65;;
7529;SDS011;3806;52.270;10.544;2023-11-19T02:34:59;0.73;;;0.60;;
7529;SDS011;3806;52.270;10.544;2023-11-19T02:37:24;1.30;;;0.82;;
7529;SDS011;3806;52.270;10.544;2023-11-19T02:39:50;0.65;;;0.65;;
7529;SDS011;3806;52.270;10.544;2023-11-19T02:42:16;3.05;;;1.30;;
7529;SDS011;3806;52.270;10.544;2023-11-19T02:44:44;1.75;;;1.10;;
7529;SDS011;3806;52.270;10.544;2023-11-19T02:47:11;4.50;;;1.38;;
7529;SDS011;3806;52.270;10.544;2023-11-19T02:49:36;2.78;;;1.00;;
7529;SDS011;3806;52.270;10.544;2023-11-19T02:52:02;3.25;;;1.75;;
7529;SDS011;3806;52.270;10.544;2023-11-19T02:54:30;2.78;;;1.20;;
7529;SDS011;3806;52.270;10.544;2023-11-19T02:56:59;1.85;;;1.23;;
7529;SDS011;3806;52.270;10.544;2023-11-19T02:59:26;1.80;;;1.10;;
7529;SDS011;3806;52.270;10.544;2023-11-19T03:01:52;2.60;;;1.13;;
7529;SDS011;3806;52.270;10.544;2023-11-19T03:04:18;3.10;;;1.48;;
7529;SDS011;3806;52.270;10.544;2023-11-19T03:06:48;2.40;;;1.00;;
7529;SDS011;3806;52.270;10.544;2023-11-19T03:09:14;2.75;;;1.10;;
7529;SDS011;3806;52.270;10.544;2023-11-19T03:11:39;4.68;;;1.42;;
7529;SDS011;3806;52.270;10.544;2023-11-19T03:14:05;2.85;;;1.45;;
7529;SDS011;3806;52.270;10.544;2023-11-19T03:16:30;2.42;;;1.42;;
7529;SDS011;3806;52.270;10.544;2023-11-19T03:18:56;2.15;;;1.20;;
7529;SDS011;3806;52.270;10.544;2023-11-19T03:21:28;1.85;;;1.08;;
7529;SDS011;3806;52.270;10.544;2023-11-19T03:23:54;2.30;;;1.20;;
7529;SDS011;3806;52.270;10.544;2023-11-19T03:26:20;2.08;;;1.35;;
7529;SDS011;3806;52.270;10.544;2023-11-19T03:28:46;1.05;;;0.90;;
7529;SDS011;3806;52.270;10.544;2023-11-19T03:31:12;2.75;;;1.35;;
7529;SDS011;3806;52.270;10.544;2023-11-19T03:33:38;1.95;;;1.23;;
7529;SDS011;3806;52.270;10.544;2023-11-19T03:36:03;4.57;;;1.27;;
7529;SDS011;3806;52.270;10.544;2023-11-19T03:38:30;1.35;;;0.80;;
7529;SDS011;3806;52.270;10.544;2023-11-19T03:40:55;2.15;;;1.30;;
7529;SDS011;3806;52.270;10.544;2023-11-19T03:43:21;2.47;;;0.85;;
7529;SDS011;3806;52.270;10.544;2023-11-19T03:45:46;1.48;;;0.95;;
7529;SDS011;3806;52.270;10.544;2023-11-19T03:48:13;0.82;;;0.60;;
7529;SDS011;3806;52.270;10.544;2023-11-19T03:50:41;0.75;;;0.45;;
7529;SDS011;3806;52.270;10.544;2023-11-19T03:53:06;0.68;;;0.50;;
7529;SDS011;3806;52.270;10.544;2023-11-19T03:55:32;1.33;;;0.40;;
7529;SDS011;3806;52.270;10.544;2023-11-19T03:57:57;0.35;;;0.35;;
7529;SDS011;3806;52.270;10.544;2023-11-19T04:00:23;1.40;;;0.55;;
7529;SDS011;3806;52.270;10.544;2023-11-19T04:02:49;1.02;;;0.68;;
7529;SDS011;3806;52.270;10.544;2023-11-19T04:05:14;0.70;;;0.38;;
7529;SDS011;3806;52.270;10.544;2023-11-19T04:07:40;0.70;;;0.57;;
7529;SDS011;3806;52.270;10.544;2023-11-19T04:10:05;0.77;;;0.38;;
7529;SDS011;3806;52.270;10.544;2023-11-19T04:12:31;0.32;;;0.32;;
7529;SDS011;3806;52.270;10.544;2023-11-19T04:14:57;0.60;;;0.60;;
7529;SDS011;3806;52.270;10.544;2023-11-19T04:17:22;0.50;;;0.30;;
7529;SDS011;3806;52.270;10.544;2023-11-19T04:19:48;1.20;;;0.70;;
7529;SDS011;3806;52.270;10.544;2023-11-19T04:22:13;0.60;;;0.60;;
7529;SDS011;3806;52.270;10.544;2023-11-19T04:24:39;0.52;;;0.52;;
7529;SDS011;3806;52.270;10.544;2023-11-19T04:27:05;0.77;;;0.50;;
7529;SDS011;3806;52.270;10.544;2023-11-19T04:29:31;0.32;;;0.32;;
7529;SDS011;3806;52.270;10.544;2023-11-19T04:31:57;1.33;;;0.47;;
7529;SDS011;3806;52.270;10.544;2023-11-19T04:34:23;0.52;;;0.40;;
7529;SDS011;3806;52.270;10.544;2023-11-19T04:36:49;1.00;;;0.65;;
7529;SDS011;3806;52.270;10.544;2023-11-19T04:39:14;3.45;;;0.70;;
7529;SDS011;3806;52.270;10.544;2023-11-19T04:41:50;1.10;;;0.70;;
7529;SDS011;3806;52.270;10.544;2023-11-19T04:44:19;0.88;;;0.70;;
7529;SDS011;3806;52.270;10.544;2023-11-19T04:46:45;1.05;;;0.90;;
7529;SDS011;3806;52.270;10.544;2023-11-19T04:49:11;1.30;;;1.08;;
7529;SDS011;3806;52.270;10.544;2023-11-19T04:51:38;1.20;;;0.80;;
7529;SDS011;3806;52.270;10.544;2023-11-19T04:54:08;2.10;;;0.63;;
7529;SDS011;3806;52.270;10.544;2023-11-19T04:56:34;1.63;;;1.15;;
7529;SDS011;3806;52.270;10.544;2023-11-19T04:59:01;1.33;;;0.88;;
7529;SDS011;3806;52.270;10.544;2023-11-19T05:01:27;2.35;;;1.10;;
7529;SDS011;3806;52.270;10.544;2023-11-19T05:03:53;2.92;;;1.00;;
7529;SDS011;3806;52.270;10.544;2023-11-19T05:06:18;2.00;;;1.65;;
7529;SDS011;3806;52.270;10.544;2023-11-19T05:08:44;1.60;;;0.80;;
7529;SDS011;3806;52.270;10.544;2023-11-19T05:11:10;1.63;;;1.15;;
7529;SDS011;3806;52.270;10.544;2023-11-19T05:13:38;3.00;;;1.08;;
7529;SDS011;3806;52.270;10.544;2023-11-19T05:16:04;2.35;;;0.98;;
7529;SDS011;3806;52.270;10.544;2023-11-19T05:18:30;2.47;;;1.65;;
7529;SDS011;3806;52.270;10.544;2023-11-19T05:20:55;1.33;;;1.00;;
7529;SDS011;3806;52.270;10.544;2023-11-19T05:23:21;1.15;;;0.98;;
7529;SDS011;3806;52.270;10.544;2023-11-19T05:25:46;1.17;;;0.77;;
7529;SDS011;3806;52.270;10.544;2023-11-19T05:28:12;1.20;;;0.95;;
7529;SDS011;3806;52.270;10.544;2023-11-19T05:30:39;2.53;;;1.17;;
7529;SDS011;3806;52.270;10.544;2023-11-19T05:33:05;1.58;;;1.10;;
7529;SDS011;3806;52.270;10.544;2023-11-19T05:35:31;2.15;;;1.33;;
7529;SDS011;3806;52.270;10.544;2023-11-19T05:37:57;1.45;;;1.00;;
7529;SDS011;3806;52.270;10.544;2023-11-19T05:40:23;1.35;;;0.80;;
7529;SDS011;3806;52.270;10.544;2023-11-19T05:42:48;1.95;;;0.90;;
7529;SDS011;3806;52.270;10.544;2023-11-19T05:45:14;1.10;;;1.00;;
7529;SDS011;3806;52.270;10.544;2023-11-19T05:47:40;5.65;;;1.10;;
7529;SDS011;3806;52.270;10.544;2023-11-19T05:50:06;1.13;;;0.75;;
7529;SDS011;3806;52.270;10.544;2023-11-19T05:52:32;1.15;;;0.75;;
7529;SDS011;3806;52.270;10.544;2023-11-19T05:55:01;1.67;;;1.00;;
7529;SDS011;3806;52.270;10.544;2023-11-19T05:57:34;1.02;;;0.80;;
7529;SDS011;3806;52.270;10.544;2023-11-19T06:00:00;2.05;;;0.98;;
7529;SDS011;3806;52.270;10.544;2023-11-19T06:02:25;1.67;;;0.90;;
7529;SDS011;3806;52.270;10.544;2023-11-19T06:04:52;1.27;;;0.68;;
7529;SDS011;3806;52.270;10.544;2023-11-19T06:07:18;1.27;;;0.82;;
7529;SDS011;3806;52.270;10.544;2023-11-19T06:09:44;2.17;;;0.98;;
7529;SDS011;3806;52.270;10.544;2023-11-19T06:12:10;1.55;;;0.98;;
7529;SDS011;3806;52.270;10.544;2023-11-19T06:14:36;3.70;;;0.85;;
7529;SDS011;3806;52.270;10.544;2023-11-19T06:17:01;2.40;;;1.38;;
7529;SDS011;3806;52.270;10.544;2023-11-19T06:19:27;0.80;;;0.80;;
7529;SDS011;3806;52.270;10.544;2023-11-19T06:21:53;2.92;;;1.13;;
7529;SDS011;3806;52.270;10.544;2023-11-19T06:24:18;1.42;;;1.15;;
7529;SDS011;3806;52.270;10.544;2023-11-19T06:26:44;3.42;;;1.13;;
7529;SDS011;3806;52.270;10.544;2023-11-19T06:29:10;1.05;;;1.05;;
7529;SDS011;3806;52.270;10.544;2023-11-19T06:31:35;1.48;;;1.05;;
7529;SDS011;3806;52.270;10.544;2023-11-19T06:34:01;4.10;;;1.20;;
7529;SDS011;3806;52.270;10.544;2023-11-19T06:36:27;2.35;;;1.15;;
7529;SDS011;3806;52.270;10.544;2023-11-19T06:38:52;1.63;;;1.10;;
7529;SDS011;3806;52.270;10.544;2023-11-19T06:41:18;0.95;;;0.95;;
7529;SDS011;3806;52.270;10.544;2023-11-19T06:43:43;2.22;;;1.52;;
7529;SDS011;3806;52.270;10.544;2023-11-19T06:46:16;2.05;;;1.30;;
7529;SDS011;3806;52.270;10.544;2023-11-19T06:48:42;2.22;;;1.10;;
7529;SDS011;3806;52.270;10.544;2023-11-19T06:51:09;3.85;;;1.45;;
7529;SDS011;3806;52.270;10.544;2023-11-19T06:53:34;1.67;;;1.30;;
7529;SDS011;3806;52.270;10.544;2023-11-19T06:56:01;2.83;;;1.30;;
7529;SDS011;3806;52.270;10.544;2023-11-19T06:58:30;1.70;;;1.58;;
7529;SDS011;3806;52.270;10.544;2023-11-19T07:00:56;5.35;;;1.35;;
7529;SDS011;3806;52.270;10.544;2023-11-19T07:03:21;1.42;;;1.10;;
7529;SDS011;3806;52.270;10.544;2023-11-19T07:05:47;5.03;;;1.80;;
7529;SDS011;3806;52.270;10.544;2023-11-19T07:08:13;5.15;;;1.83;;
7529;SDS011;3806;52.270;10.544;2023-11-19T07:10:39;4.43;;;1.52;;
7529;SDS011;3806;52.270;10.544;2023-11-19T07:13:04;2.08;;;1.40;;
7529;SDS011;3806;52.270;10.544;2023-11-19T07:15:31;3.50;;;1.58;;
7529;SDS011;3806;52.270;10.544;2023-11-19T07:17:57;5.85;;;1.88;;
7529;SDS011;3806;52.270;10.544;2023-11-19T07:20:24;2.08;;;1.50;;
7529;SDS011;3806;52.270;10.544;2023-11-19T07:22:51;5.03;;;1.90;;
7529;SDS011;3806;52.270;10.544;2023-11-19T07:25:17;3.53;;;1.48;;
7529;SDS011;3806;52.270;10.544;2023-11-19T07:27:42;2.72;;;1.67;;
7529;SDS011;3806;52.270;10.544;2023-11-19T07:30:08;5.32;;;1.42;;
7529;SDS011;3806;52.270;10.544;2023-11-19T07:32:34;3.15;;;1.60;;
7529;SDS011;3806;52.270;10.544;2023-11-19T07:35:00;4.45;;;1.60;;
7529;SDS011;3806;52.270;10.544;2023-11-19T07:37:25;8.32;;;1.83;;
7529;SDS011;3806;52.270;10.544;2023-11-19T07:39:51;4.93;;;1.30;;
7529;SDS011;3806;52.270;10.544;2023-11-19T07:42:16;4.10;;;1.48;;
7529;SDS011;3806;52.270;10.544;2023-11-19T07:44:45;3.00;;;1.77;;
7529;SDS011;3806;52.270;10.544;2023-11-19T07:47:11;3.60;;;1.75;;
7529;SDS011;3806;52.270;10.544;2023-11-19T07:49:37;2.80;;;1.75;;
7529;SDS011;3806;52.270;10.544;2023-11-19T07:52:03;4.05;;;1.80;;
7529;SDS011;3806;52.270;10.544;2023-11-19T07:54:29;3.63;;;1.95;;
7529;SDS011;3806;52.270;10.544;2023-11-19T07:56:55;3.08;;;2.05;;
7529;SDS011;3806;52.270;10.544;2023-11-19T07:59:20;8.57;;;2.30;;
7529;SDS011;3806;52.270;10.544;2023-11-19T08:01:46;4.50;;;1.88;;
7529;SDS011;3806;52.270;10.544;2023-11-19T08:04:11;5.00;;;1.83;;
7529;SDS011;3806;52.270;10.544;2023-11-19T08:06:37;8.48;;;2.88;;
7529;SDS011;3806;52.270;10.544;2023-11-19T08:09:03;4.80;;;1.65;;
7529;SDS011;3806;52.270;10.544;2023-11-19T08:11:28;8.00;;;2.15;;
7529;SDS011;3806;52.270;10.544;2023-11-19T08:13:54;8.88;;;3.58;;
7529;SDS011;3806;52.270;10.544;2023-11-19T08:16:19;5.13;;;2.05;;
7529;SDS011;3806;52.270;10.544;2023-11-19T08:18:45;7.75;;;2.75;;
7529;SDS011;3806;52.270;10.544;2023-11-19T08:21:10;5.80;;;1.73;;
7529;SDS011;3806;52.270;10.544;2023-11-19T08:23:36;6.70;;;2.30;;
7529;SDS011;3806;52.270;10.544;2023-11-19T08:26:02;8.38;;;1.83;;
7529;SDS011;3806;52.270;10.544;2023-11-19T08:28:29;10.93;;;2.83;;
7529;SDS011;3806;52.270;10.544;2023-11-19T08:30:56;4.70;;;2.15;;
7529;SDS011;3806;52.270;10.544;2023-11-19T08:33:21;9.20;;;1.90;;
7529;SDS011;3806;52.270;10.544;2023-11-19T08:35:47;7.07;;;2.20;;
7529;SDS011;3806;52.270;10.544;2023-11-19T08:38:13;12.52;;;3.13;;
7529;SDS011;3806;52.270;10.544;2023-11-19T08:40:39;10.77;;;2.72;;
7529;SDS011;3806;52.270;10.544;2023-11-19T08:43:04;8.48;;;2.33;;
7529;SDS011;3806;52.270;10.544;2023-11-19T08:45:30;8.82;;;2.50;;
7529;SDS011;3806;52.270;10.544;2023-11-19T08:47:56;10.45;;;2.90;;
7529;SDS011;3806;52.270;10.544;2023-11-19T08:50:22;10.98;;;3.63;;
7529;SDS011;3806;52.270;10.544;2023-11-19T08:52:47;9.95;;;2.50;;
7529;SDS011;3806;52.270;10.544;2023-11-19T08:55:13;9.18;;;2.33;;
7529;SDS011;3806;52.270;10.544;2023-11-19T08:57:38;9.48;;;2.50;;
7529;SDS011;3806;52.270;10.544;2023-11-19T09:00:04;8.90;;;2.85;;
7529;SDS011;3806;52.270;10.544;2023-11-19T09:02:34;9.07;;;2.15;;
7529;SDS011;3806;52.270;10.544;2023-11-19T09:05:01;9.13;;;2.50;;
7529;SDS011;3806;52.270;10.544;2023-11-19T09:07:27;9.00;;;3.22;;
7529;SDS011;3806;52.270;10.544;2023-11-19T09:09:53;8.07;;;2.78;;
7529;SDS011;3806;52.270;10.544;2023-11-19T09:12:18;13.00;;;3.08;;
7529;SDS011;3806;52.270;10.544;2023-11-19T09:14:44;11.52;;;3.47;;
7529;SDS011;3806;52.270;10.544;2023-11-19T09:17:10;9.80;;;3.50;;
7529;SDS011;3806;52.270;10.544;2023-11-19T09:19:36;13.85;;;2.88;;
7529;SDS011;3806;52.270;10.544;2023-11-19T09:22:02;9.73;;;3.10;;
7529;SDS011;3806;52.270;10.544;2023-11-19T09:24:28;9.85;;;2.15;;
7529;SDS011;3806;52.270;10.544;2023-11-19T09:26:53;17.20;;;2.95;;
7529;SDS011;3806;52.270;10.544;2023-11-19T09:29:20;14.75;;;3.45;;
7529;SDS011;3806;52.270;10.544;2023-11-19T09:31:46;12.88;;;3.72;;
7529;SDS011;3806;52.270;10.544;2023-11-19T09:34:12;9.30;;;2.85;;
7529;SDS011;3806;52.270;10.544;2023-11-19T09:36:37;20.23;;;3.45;;
7529;SDS011;3806;52.270;10.544;2023-11-19T09:39:03;14.55;;;3.35;;
7529;SDS011;3806;52.270;10.544;2023-11-19T09:41:30;9.05;;;2.08;;
7529;SDS011;3806;52.270;10.544;2023-11-19T09:43:57;9.82;;;2.40;;
7529;SDS011;3806;52.270;10.544;2023-11-19T09:46:23;12.93;;;3.10;;
7529;SDS011;3806;52.270;10.544;2023-11-19T09:48:49;14.68;;;4.20;;
7529;SDS011;3806;52.270;10.544;2023-11-19T09:51:19;12.43;;;3.65;;
7529;SDS011;3806;52.270;10.544;2023-11-19T09:53:45;12.35;;;3.58;;
7529;SDS011;3806;52.270;10.544;2023-11-19T09:56:11;17.35;;;3.67;;
7529;SDS011;3806;52.270;10.544;2023-11-19T09:58:37;8.95;;;2.92;;
7529;SDS011;3806;52.270;10.544;2023-11-19T10:01:03;12.15;;;3.08;;
7529;SDS011;3806;52.270;10.544;2023-11-19T10:03:33;10.77;;;3.28;;
7529;SDS011;3806;52.270;10.544;2023-11-19T10:06:02;16.10;;;3.28;;
7529;SDS011;3806;52.270;10.544;2023-11-19T10:08:28;10.07;;;3.13;;
7529;SDS011;3806;52.270;10.544;2023-11-19T10:10:54;12.43;;;2.83;;
7529;SDS011;3806;52.270;10.544;2023-11-19T10:13:20;13.75;;;4.10;;
7529;SDS011;3806;52.270;10.544;2023-11-19T10:15:51;14.85;;;3.92;;
7529;SDS011;3806;52.270;10.544;2023-11-19T10:18:18;15.80;;;4.53;;
7529;SDS011;3806;52.270;10.544;2023-11-19T10:20:43;10.73;;;3.13;;
7529;SDS011;3806;52.270;10.544;2023-11-19T10:23:10;16.30;;;3.92;;
7529;SDS011;3806;52.270;10.544;2023-11-19T10:25:37;9.82;;;3.97;;
7529;SDS011;3806;52.270;10.544;2023-11-19T10:28:02;15.27;;;3.97;;
7529;SDS011;3806;52.270;10.544;2023-11-19T10:30:29;10.13;;;3.38;;
7529;SDS011;3806;52.270;10.544;2023-11-19T10:33:11;15.98;;;3.90;;
7529;SDS011;3806;52.270;10.544;2023-11-19T10:35:54;16.83;;;3.67;;
7529;SDS011;3806;52.270;10.544;2023-11-19T10:38:21;20.65;;;5.82;;
7529;SDS011;3806;52.270;10.544;2023-11-19T10:40:48;17.95;;;6.22;;
7529;SDS011;3806;52.270;10.544;2023-11-19T10:43:15;13.23;;;5.00;;
7529;SDS011;3806;52.270;10.544;2023-11-19T10:45:42;26.08;;;6.03;;
7529;SDS011;3806;52.270;10.544;2023-11-19T10:48:08;19.95;;;5.40;;
7529;SDS011;3806;52.270;10.544;2023-11-19T10:50:35;10.35;;;3.42;;
7529;SDS011;3806;52.270;10.544;2023-11-19T10:53:02;18.00;;;4.13;;
7529;SDS011;3806;52.270;10.544;2023-11-19T10:55:29;24.42;;;4.97;;
7529;SDS011;3806;52.270;10.544;2023-11-19T10:58:00;14.65;;;3.92;;
7529;SDS011;3806;52.270;10.544;2023-11-19T11:00:37;14.05;;;3.15;;
7529;SDS011;3806;52.270;10.544;2023-11-19T11:03:08;13.02;;;3.28;;
7529;SDS011;3806;52.270;10.544;2023-11-19T11:05:41;10.52;;;2.97;;
7529;SDS011;3806;52.270;10.544;2023-11-19T11:08:07;13.68;;;3.47;;
7529;SDS011;3806;52.270;10.544;2023-11-19T11:10:35;7.88;;;3.35;;
7529;SDS011;3806;52.270;10.544;2023-11-19T11:13:07;11.70;;;3.05;;
7529;SDS011;3806;52.270;10.544;2023-11-19T11:15:33;13.52;;;2.55;;
7529;SDS011;3806;52.270;10.544;2023-11-19T11:18:00;8.98;;;2.08;;
7529;SDS011;3806;52.270;10.544;2023-11-19T11:20:27;8.80;;;2.53;;
7529;SDS011;3806;52.270;10.544;2023-11-19T11:23:16;9.93;;;2.22;;
7529;SDS011;3806;52.270;10.544;2023-11-19T11:26:06;10.05;;;2.33;;
7529;SDS011;3806;52.270;10.544;2023-11-19T11:34:32;7.55;;;2.17;;
7529;SDS011;3806;52.270;10.544;2023-11-19T11:37:25;12.38;;;2.47;;
7529;SDS011;3806;52.270;10.544;2023-11-19T11:44:58;12.02;;;2.63;;
7529;SDS011;3806;52.270;10.544;2023-11-19T11:47:25;11.73;;;2.75;;
7529;SDS011;3806;52.270;10.544;2023-11-19T11:49:51;8.93;;;2.53;;
7529;SDS011;3806;52.270;10.544;2023-11-19T11:52:17;13.25;;;2.60;;
7529;SDS011;3806;52.270;10.544;2023-11-19T11:54:42;8.30;;;2.25;;
7529;SDS011;3806;52.270;10.544;2023-11-19T11:57:13;9.60;;;2.78;;
7529;SDS011;3806;52.270;10.544;2023-11-19T11:59:50;9.50;;;3.63;;
7529;SDS011;3806;52.270;10.544;2023-11-19T12:02:19;18.05;;;3.38;;
7529;SDS011;3806;52.270;10.544;2023-11-19T12:04:47;13.32;;;3.90;;
7529;SDS011;3806;52.270;10.544;2023-11-19T12:07:17;12.75;;;3.90;;
7529;SDS011;3806;52.270;10.544;2023-11-19T12:09:48;17.55;;;3.90;;
7529;SDS011;3806;52.270;10.544;2023-11-19T12:12:32;11.52;;;3.22;;
7529;SDS011;3806;52.270;10.544;2023-11-19T12:20:02;16.08;;;3.00;;
7529;SDS011;3806;52.270;10.544;2023-11-19T12:22:31;7.13;;;2.05;;
7529;SDS011;3806;52.270;10.544;2023-11-19T12:24:56;11.57;;;2.42;;
7529;SDS011;3806;52.270;10.544;2023-11-19T12:27:22;7.45;;;2.70;;
7529;SDS011;3806;52.270;10.544;2023-11-19T12:29:48;10.48;;;2.70;;
7529;SDS011;3806;52.270;10.544;2023-11-19T12:32:14;9.43;;;2.63;;
7529;SDS011;3806;52.270;10.544;2023-11-19T12:34:39;14.20;;;3.25;;
7529;SDS011;3806;52.270;10.544;2023-11-19T12:37:05;11.98;;;2.83;;
7529;SDS011;3806;52.270;10.544;2023-11-19T12:39:31;9.25;;;2.38;;
7529;SDS011;3806;52.270;10.544;2023-11-19T12:41:57;10.05;;;3.60;;
7529;SDS011;3806;52.270;10.544;2023-11-19T12:44:24;14.52;;;3.55;;
7529;SDS011;3806;52.270;10.544;2023-11-19T12:49:32;16.00;;;2.83;;
7529;SDS011;3806;52.270;10.544;2023-11-19T12:51:58;15.20;;;3.17;;
7529;SDS011;3806;52.270;10.544;2023-11-19T12:54:37;12.57;;;2.75;;
7529;SDS011;3806;52.270;10.544;2023-11-19T12:57:03;11.93;;;2.83;;
7529;SDS011;3806;52.270;10.544;2023-11-19T12:59:30;15.23;;;3.95;;
7529;SDS011;3806;52.270;10.544;2023-11-19T13:01:59;12.15;;;3.22;;
7529;SDS011;3806;52.270;10.544;2023-11-19T13:04:31;9.15;;;2.85;;
7529;SDS011;3806;52.270;10.544;2023-11-19T13:06:57;11.32;;;2.63;;
7529;SDS011;3806;52.270;10.544;2023-11-19T13:09:24;13.32;;;4.05;;
7529;SDS011;3806;52.270;10.544;2023-11-19T13:11:50;14.13;;;2.85;;
7529;SDS011;3806;52.270;10.544;2023-11-19T13:14:17;13.50;;;2.92;;
7529;SDS011;3806;52.270;10.544;2023-11-19T13:16:44;9.77;;;2.40;;
7529;SDS011;3806;52.270;10.544;2023-11-19T13:19:13;8.80;;;2.60;;
7529;SDS011;3806;52.270;10.544;2023-11-19T13:21:39;12.63;;;3.13;;
7529;SDS011;3806;52.270;10.544;2023-11-19T13:24:05;16.25;;;3.70;;
7529;SDS011;3806;52.270;10.544;2023-11-19T13:26:31;15.00;;;2.50;;
7529;SDS011;3806;52.270;10.544;2023-11-19T13:28:57;10.18;;;3.05;;
7529;SDS011;3806;52.270;10.544;2023-11-19T13:31:22;12.05;;;2.80;;
7529;SDS011;3806;52.270;10.544;2023-11-19T13:33:48;18.05;;;3.05;;
7529;SDS011;3806;52.270;10.544;2023-11-19T13:36:13;16.92;;;3.38;;
7529;SDS011;3806;52.270;10.544;2023-11-19T13:38:39;11.90;;;2.92;;
7529;SDS011;3806;52.270;10.544;2023-11-19T13:41:07;14.95;;;3.30;;
7529;SDS011;3806;52.270;10.544;2023-11-19T13:43:34;12.95;;;3.85;;
7529;SDS011;3806;52.270;10.544;2023-11-19T13:46:00;16.90;;;3.15;;
7529;SDS011;3806;52.270;10.544;2023-11-19T13:48:26;13.15;;;3.70;;
7529;SDS011;3806;52.270;10.544;2023-11-19T13:50:52;16.40;;;3.72;;
7529;SDS011;3806;52.270;10.544;2023-11-19T13:53:18;12.70;;;4.05;;
7529;SDS011;3806;52.270;10.544;2023-11-19T13:55:43;13.88;;;2.78;;
7529;SDS011;3806;52.270;10.544;2023-11-19T13:58:09;11.32;;;2.85;;
7529;SDS011;3806;52.270;10.544;2023-11-19T14:00:35;8.43;;;2.38;;
7529;SDS011;3806;52.270;10.544;2023-11-19T14:03:01;18.63;;;4.07;;
7529;SDS011;3806;52.270;10.544;2023-11-19T14:05:27;7.32;;;2.75;;
7529;SDS011;3806;52.270;10.544;2023-11-19T14:07:53;11.00;;;3.88;;
7529;SDS011;3806;52.270;10.544;2023-11-19T14:10:21;12.25;;;3.17;;
7529;SDS011;3806;52.270;10.544;2023-11-19T14:12:47;15.82;;;3.90;;
7529;SDS011;3806;52.270;10.544;2023-11-19T14:15:14;11.27;;;3.15;;
7529;SDS011;3806;52.270;10.544;2023-11-19T14:17:42;12.10;;;3.60;;
7529;SDS011;3806;52.270;10.544;2023-11-19T14:20:08;7.05;;;2.33;;
7529;SDS011;3806;52.270;10.544;2023-11-19T14:22:42;8.90;;;2.45;;
7529;SDS011;3806;52.270;10.544;2023-11-19T14:25:09;9.15;;;2.60;;
7529;SDS011;3806;52.270;10.544;2023-11-19T14:27:36;19.48;;;3.67;;
7529;SDS011;3806;52.270;10.544;2023-11-19T14:30:10;10.38;;;2.97;;
7529;SDS011;3806;52.270;10.544;2023-11-19T14:32:38;14.18;;;3.28;;
7529;SDS011;3806;52.270;10.544;2023-11-19T14:35:07;10.20;;;3.40;;
7529;SDS011;3806;52.270;10.544;2023-11-19T14:37:33;7.53;;;2.75;;
7529;SDS011;3806;52.270;10.544;2023-11-19T14:39:59;8.90;;;2.45;;
7529;SDS011;3806;52.270;10.544;2023-11-19T14:42:25;10.85;;;3.72;;
7529;SDS011;3806;52.270;10.544;2023-11-19T14:44:51;16.77;;;4.15;;
7529;SDS011;3806;52.270;10.544;2023-11-19T14:47:26;11.27;;;2.92;;
7529;SDS011;3806;52.270;10.544;2023-11-19T14:49:52;10.95;;;2.83;;
7529;SDS011;3806;52.270;10.544;2023-11-19T14:52:17;7.45;;;2.67;;
7529;SDS011;3806;52.270;10.544;2023-11-19T14:54:43;10.93;;;3.50;;
7529;SDS011;3806;52.270;10.544;2023-11-19T14:57:08;11.55;;;3.28;;
7529;SDS011;3806;52.270;10.544;2023-11-19T14:59:34;10.40;;;3.28;;
7529;SDS011;3806;52.270;10.544;2023-11-19T15:02:00;10.52;;;3.40;;
7529;SDS011;3806;52.270;10.544;2023-11-19T15:04:26;14.45;;;3.65;;
7529;SDS011;3806;52.270;10.544;2023-11-19T15:06:52;13.80;;;3.60;;
7529;SDS011;3806;52.270;10.544;2023-11-19T15:09:17;10.43;;;4.85;;
7529;SDS011;3806;52.270;10.544;2023-11-19T15:11:45;10.93;;;3.22;;
7529;SDS011;3806;52.270;10.544;2023-11-19T15:14:12;13.45;;;4.65;;
7529;SDS011;3806;52.270;10.544;2023-11-19T15:16:41;13.45;;;3.42;;